Stations météo

réclame
Mon MeteoGroup
Großer Arber, Allemagne (10791): Température de l'air & dewpoint: 12.02.2019 18:00:00 - 18.02.2019 18:00:00 (CET)Großer Arber, Allemagne (10791): Vitesse du vent & gusts: 12.02.2019 18:00:00 - 18.02.2019 18:00:00 (CET)Großer Arber, Allemagne (10791): Direction du vent: 12.02.2019 18:00:00 - 18.02.2019 18:00:00 (CET)Großer Arber, Allemagne (10791): visibility: 12.02.2019 18:00:00 - 18.02.2019 18:00:00 (CET)Großer Arber, Allemagne (10791): Ensoleillement: 12.02.2019 18:00:00 - 18.02.2019 18:00:00 (CET)
Date & Time tt [°C] td [°C] ff [km/h] ff [knt] fx [km/h] fx [knt] dd vv [km] sd [min]
18.02.2019 18:00:00 3,2 -11,8 17 9 22 12 S 75 45
18.02.2019 17:00:00 5,3 -10,7 14 7 19 10 S 75 60
18.02.2019 16:00:00 6,4 -11,2 13 7 21 12 SSE 53 60
18.02.2019 15:00:00 7,6 -12,5 13 7 19 10 SSE 71 60
18.02.2019 14:00:00 8,0 -12,8 5 3 15 8 ESE 75 60
18.02.2019 13:00:00 7,9 -11,7 9 5 16 8 SSE 59 60
18.02.2019 12:00:00 8,8 -13,5 8 4 14 7 S 48 60
18.02.2019 11:00:00 8,6 -12,9 4 2 14 7 S 75 60
18.02.2019 10:00:00 6,3 -13,6 9 5 14 8 S 75 60
18.02.2019 09:00:00 6,0 -16,5 8 5 10 6 S 66 60
18.02.2019 08:00:00 4,8 -16,3 8 5 11 6 S 75 16
18.02.2019 07:00:00 4,8 -15,4 7 4 9 5 S 75 0
18.02.2019 06:00:00 5,8 -17,2 7 4 8 4 SSW 75 0
18.02.2019 05:00:00 5,3 -16,6 5 3 10 5 S 73 0
18.02.2019 04:00:00 5,2 -16,2 8 4 13 7 SSW 75 0
18.02.2019 03:00:00 6,0 -16,2 8 5 14 7 SSW 75 0
18.02.2019 02:00:00 5,7 -15,5 7 4 13 7 SSW 75 0
18.02.2019 01:00:00 6,2 -15,9 7 4 11 6 SSW 75 0
18.02.2019 00:00:00 5,3 -14,5 11 6 17 9 SW 75 0
17.02.2019 23:00:00 4,8 -13,8 13 7 20 11 SW 75 0
17.02.2019 22:00:00 4,7 -13,1 16 8 21 11 SW 75 0
17.02.2019 21:00:00 5,1 -12,9 20 11 28 15 SW 71 0
17.02.2019 20:00:00 4,9 -11,9 24 13 28 15 SW 75 0
17.02.2019 19:00:00 5,9 -13,3 21 11 26 14 SSW 75 0
17.02.2019 18:00:00 6,3 -17,5 19 11 24 13 S 75 40
17.02.2019 17:00:00 6,6 -12,6 15 8 19 10 SSW 73 60
17.02.2019 16:00:00 7,4 -11,8 10 6 19 11 S 75 60
17.02.2019 15:00:00 8,0 -12,7 13 7 17 9 SSW 67 60
17.02.2019 14:00:00 8,1 -12,2 10 6 16 9 S 75 60
17.02.2019 13:00:00 7,9 -9,4 9 5 12 7 SSW 49 60
17.02.2019 12:00:00 9,6 -11,3 6 3 11 6 SSW 75 60
17.02.2019 11:00:00 9,2 -10,9 6 4 9 5 SSW 74 60
17.02.2019 10:00:00 8,6 -11,1 4 2 6 4 E 75 60
17.02.2019 09:00:00 7,4 -16,1 6 3 13 7 NW 71 60
17.02.2019 08:00:00 5,4 -13,8 12 6 19 10 NW 75 16
17.02.2019 07:00:00 5,6 -13,4 14 7 21 11 WNW 75 0
17.02.2019 06:00:00 5,2 -13,0 12 7 21 11 WNW 75 0
17.02.2019 05:00:00 5,3 -12,7 13 7 21 11 WNW 75 0
17.02.2019 04:00:00 5,3 -11,8 15 8 19 11 WNW 75 0
17.02.2019 03:00:00 5,5 -12,1 16 8 17 9 NW 75 0
17.02.2019 02:00:00 5,7 -16,0 16 9 18 10 WNW 75 0
17.02.2019 01:00:00 5,0 -16,5 16 9 18 10 NW 74 0
17.02.2019 00:00:00 5,8 -17,7 13 7 17 9 WNW 75 0
16.02.2019 23:00:00 6,0 -17,7 13 7 22 12 WNW 75 0
16.02.2019 22:00:00 6,5 -17,0 16 9 20 11 WNW 75 0
16.02.2019 21:00:00 5,9 -14,4 12 7 18 10 WNW 75 0
16.02.2019 20:00:00 6,2 -16,1 11 6 17 9 W 75 0
16.02.2019 19:00:00 5,9 -14,9 14 8 16 9 SW 51 0
16.02.2019 18:00:00 6,8 -17,9 16 9 20 11 SW 75 38
16.02.2019 17:00:00 7,2 -13,5 18 10 22 12 SW 47 60
16.02.2019 16:00:00 6,7 -10,8 17 9 29 16 SSW 45 60
16.02.2019 15:00:00 6,4 -9,7 19 11 29 15 S 60 60
16.02.2019 14:00:00 6,6 -10,8 19 10 26 14 S 67 60
16.02.2019 13:00:00 5,4 -9,3 20 11 25 14 S 47 60
16.02.2019 12:00:00 6,0 -7,5 17 9 24 13 S 49 60
16.02.2019 11:00:00 6,6 -8,2 19 10 23 12 S 58 60
16.02.2019 10:00:00 5,8 -8,9 19 11 25 14 S 29 60
16.02.2019 09:00:00 5,3 -9,1 22 12 25 14 S 22 60
16.02.2019 08:00:00 4,2 -9,7 19 11 22 12 S 24 15
16.02.2019 07:00:00 3,5 -9,8 17 9 19 11 S 19 0
16.02.2019 06:00:00 3,2 -11,2 19 10 25 13 SSE 29 0
16.02.2019 05:00:00 3,6 -13,0 23 13 29 16 SSE 75 0
16.02.2019 04:00:00 3,9 -14,3 24 13 31 17 SSE 75 0
16.02.2019 03:00:00 3,2 -13,7 22 12 29 16 SSE 75 0
16.02.2019 02:00:00 3,4 -10,0 18 10 21 11 SE 75 0
16.02.2019 01:00:00 3,6 -10,1 16 9 19 10 SE 75 0
16.02.2019 00:00:00 4,4 -14,1 17 9 21 11 ESE 75 0
15.02.2019 23:00:00 3,8 -14,0 17 9 19 10 ESE 75 0
15.02.2019 22:00:00 3,2 -15,0 18 10 20 11 E 75 0
15.02.2019 21:00:00 2,7 -9,4 14 7 19 10 E 75 0
15.02.2019 20:00:00 3,9 -9,1 13 7 18 10 E 75 0
15.02.2019 19:00:00 3,2 -7,1 11 6 16 9 ESE 75 0
15.02.2019 18:00:00 3,0 -4,4 14 8 16 9 ESE 75 37
15.02.2019 17:00:00 4,2 -5,0 11 6 16 9 E 75 60
15.02.2019 16:00:00 5,1 -4,5 10 5 19 10 E 59 60
15.02.2019 15:00:00 5,6 -5,2 9 5 18 10 ENE 47 60
15.02.2019 14:00:00 6,0 -5,1 8 4 16 9 E 68 60
15.02.2019 13:00:00 5,8 -4,6 8 4 12 7 E 75 60
15.02.2019 12:00:00 5,6 -4,8 8 4 17 9 NNE 75 60
15.02.2019 11:00:00 4,9 -4,6 13 7 19 10 NE 75 60
15.02.2019 10:00:00 2,9 -6,3 13 7 25 13 NNE 75 60
15.02.2019 09:00:00 2,3 -7,1 21 11 27 15 NNE 75 60
15.02.2019 08:00:00 1,9 -7,8 22 12 27 15 NNE 75 15
15.02.2019 07:00:00 1,2 -7,3 23 12 26 14 N 75 0
15.02.2019 06:00:00 1,3 -7,3 22 12 26 14 N 75 0
15.02.2019 05:00:00 1,3 -7,4 23 12 29 16 N 75 0
15.02.2019 04:00:00 0,9 -7,1 23 13 29 15 N 75 0
15.02.2019 03:00:00 0,6 -6,8 24 13 33 18 NNE 75 0
15.02.2019 02:00:00 0,9 -6,7 29 16 34 18 N 75 0
15.02.2019 01:00:00 1,3 -6,9 29 16 33 18 N 75 0
15.02.2019 00:00:00 1,2 -6,8 28 15 34 19 N 75 0
14.02.2019 23:00:00 1,1 -6,3 29 16 35 19 N 75 0
14.02.2019 22:00:00 0,5 -6,0 20 11 26 14 N 75 0
14.02.2019 21:00:00 0,4 -5,5 20 11 23 12 NNE 75 0
14.02.2019 20:00:00 0,4 -4,1 17 9 26 14 NNE 75 0
14.02.2019 19:00:00 0,9 -1,5 24 13 29 15 N 75 0
14.02.2019 18:00:00 0,7 -1,7 24 13 29 16 N 75 35
14.02.2019 17:00:00 0,5 -2,9 16 9 21 11 NNW 75 60
14.02.2019 16:00:00 0,9 -3,5 13 7 18 10 NW 70 60
14.02.2019 15:00:00 0,2 -6,5 15 8 19 11 NW 75 60
14.02.2019 14:00:00 0,2 -9,7 16 9 22 12 NW 68 60
14.02.2019 13:00:00 0,0 -6,4 14 8 23 13 NW 53 38
14.02.2019 12:00:00 0,1 -6,4 22 12 29 16 NW 48 60
14.02.2019 11:00:00 -0,1 -7,2 24 13 29 16 NW 75 41
14.02.2019 10:00:00 0,0 -3,4 22 12 29 15 WNW 70 30
14.02.2019 09:00:00 -0,4 -3,5 19 10 24 13 WNW 75 37
14.02.2019 08:00:00 -1,3 -3,6 22 12 26 14 NW 75 0
14.02.2019 07:00:00 -2,7 -8,8 21 11 24 13 NW 75 0
14.02.2019 06:00:00 -2,4 -9,1 18 10 24 13 NW 75 0
14.02.2019 05:00:00 -2,7 -9,1 19 10 24 13 NW 75 0
14.02.2019 04:00:00 -1,7 -4,5 18 10 29 16 WNW 75 0
14.02.2019 03:00:00 -1,5 -3,2 23 12 31 17 NNW 74 0
14.02.2019 02:00:00 -1,6 -3,0 23 12 27 15 NW 75 0
14.02.2019 01:00:00 -1,6 -2,5 23 12 32 18 NW 75 0
14.02.2019 00:00:00 -2,1 -2,8 25 14 39 21 NW 75 0
13.02.2019 23:00:00 -1,8 -2,4 30 16 42 23 NNW 53 0
13.02.2019 22:00:00 -2,5 -2,9 31 17 40 22 NW 45 0
13.02.2019 21:00:00 -3,3 -3,7 25 13 27 15 NW 15 0
13.02.2019 20:00:00 -3,8 -4,7 21 11 25 13 WNW 28 0
13.02.2019 19:00:00 -4,1 -5,0 14 8 18 10 NW 27 0
13.02.2019 18:00:00 -4,2 -5,2 17 9 26 14 W 23 0
13.02.2019 17:00:00 -3,8 -4,6 16 9 26 14 W 1,9 36
13.02.2019 16:00:00 -2,7 -4,5 23 12 35 19 W 33 60
13.02.2019 15:00:00 -2,9 -5,1 17 9 29 15 W 34 60
13.02.2019 14:00:00 -3,2 -4,8 18 10 36 19 WSW 21 60
13.02.2019 13:00:00 -3,9 -5,3 22 12 44 24 W 22 59
13.02.2019 12:00:00 -4,4 -5,7 29 15 41 22 W 6 39
13.02.2019 11:00:00 -5,3 -6,5 32 17 53 28 WNW 4,6 59
13.02.2019 10:00:00 -5,8 -7,0 39 21 57 31 W 17 51
13.02.2019 09:00:00 -5,9 -6,8 43 23 59 32 W 14 0
13.02.2019 08:00:00 -5,9 -6,8 43 23 58 32 W 3,8 0
13.02.2019 07:00:00 -5,6 -5,8 32 18 48 26 W 0,1 0
13.02.2019 06:00:00 -5,5 -5,6 32 18 52 28 WNW 0,1 0
13.02.2019 05:00:00 -5,4 -5,6 34 18 48 26 WNW - 0
13.02.2019 04:00:00 -5,2 -5,3 31 17 56 30 WNW - 0
13.02.2019 03:00:00 -5,2 -5,4 36 19 49 26 NW 0,1 0
13.02.2019 02:00:00 -5,4 -5,7 35 19 50 27 WNW - 0
13.02.2019 01:00:00 -5,6 -5,9 33 18 47 26 WNW 0,1 0
13.02.2019 00:00:00 -6,0 -6,3 32 17 47 26 WNW 0,1 0
12.02.2019 23:00:00 -5,9 -6,3 32 18 54 29 WNW 0,1 0
12.02.2019 22:00:00 -6,0 -6,3 34 18 58 31 NW - 0
12.02.2019 21:00:00 -5,8 -6,3 37 20 63 34 WNW 0,1 0
12.02.2019 20:00:00 -6,0 -6,5 39 21 61 33 NW 0,1 0
12.02.2019 19:00:00 -6,0 -6,5 39 21 61 33 NW 0,1 0
12.02.2019 18:00:00 -6,5 -7,1 39 21 75 40 NW 0,4 0

tt = Température de l'air
td = dewpoint
ff = Vitesse du vent
fx = gusts
dd = Direction du vent
vv = visibility
sd = Ensoleillement

stations d'obs. à proximité